createdAt,value
2023-03-31T00:03:34.646Z,2.40
2023-03-31T00:06:04.161Z,2.80
2023-03-31T00:08:35.971Z,2.40
2023-03-31T00:11:05.406Z,2.60
2023-03-31T00:13:34.894Z,2.10
2023-03-31T00:16:08.173Z,1.90
2023-03-31T00:18:36.975Z,2.30
2023-03-31T00:21:14.819Z,2.80
2023-03-31T00:23:43.821Z,3.10
2023-03-31T00:26:13.511Z,2.50
2023-03-31T00:28:41.714Z,2.30
2023-03-31T00:31:09.965Z,2.60
2023-03-31T00:33:41.611Z,2.90
2023-03-31T00:36:10.106Z,2.90
2023-03-31T00:38:38.322Z,3.00
2023-03-31T00:41:06.857Z,3.00
2023-03-31T00:43:36.932Z,2.70
2023-03-31T00:46:18.381Z,2.80
2023-03-31T00:48:49.606Z,2.60
2023-03-31T00:51:18.317Z,2.10
2023-03-31T00:53:55.546Z,2.80
2023-03-31T00:56:23.939Z,2.00
2023-03-31T00:58:54.142Z,2.10
2023-03-31T01:01:24.862Z,2.50
2023-03-31T01:03:54.636Z,1.90
2023-03-31T01:06:23.987Z,2.00
2023-03-31T01:08:52.498Z,1.80
2023-03-31T01:11:25.283Z,2.20
2023-03-31T01:13:56.999Z,3.30
2023-03-31T01:16:25.324Z,1.50
2023-03-31T01:18:57.714Z,1.90
2023-03-31T01:21:57.347Z,1.80
2023-03-31T01:24:50.156Z,3.00
2023-03-31T01:27:44.584Z,2.40
2023-03-31T01:30:39.504Z,3.00
2023-03-31T01:33:16.503Z,2.80
2023-03-31T01:36:14.311Z,2.50
2023-03-31T01:38:57.644Z,2.00
2023-03-31T01:41:35.942Z,2.20
2023-03-31T01:44:26.186Z,2.50
2023-03-31T01:47:41.063Z,2.90
2023-03-31T01:50:19.051Z,2.80
2023-03-31T01:52:54.218Z,2.80
2023-03-31T01:55:40.605Z,2.60
2023-03-31T01:58:21.954Z,2.60
2023-03-31T02:01:02.087Z,2.30
2023-03-31T02:03:38.196Z,2.80
2023-03-31T02:06:11.543Z,2.90
2023-03-31T02:08:42.517Z,2.50
2023-03-31T02:11:10.699Z,2.10
2023-03-31T02:13:48.108Z,1.90
2023-03-31T02:16:19.287Z,2.40
2023-03-31T02:18:48.341Z,2.80
2023-03-31T02:21:16.599Z,2.30
2023-03-31T02:23:45.599Z,2.40
2023-03-31T02:26:20.940Z,2.60
2023-03-31T02:28:49.270Z,2.90
2023-03-31T02:31:29.128Z,2.70
2023-03-31T02:33:59.691Z,2.60
2023-03-31T02:36:27.981Z,4.80
2023-03-31T02:39:02.390Z,6.10
2023-03-31T02:41:31.265Z,10.00
2023-03-31T02:43:59.483Z,9.90
2023-03-31T02:46:28.029Z,7.50
2023-03-31T02:48:58.150Z,14.60
2023-03-31T02:51:48.899Z,16.40
2023-03-31T02:54:54.909Z,16.20
2023-03-31T02:57:50.118Z,18.70
2023-03-31T03:00:41.165Z,16.30
2023-03-31T03:03:31.455Z,17.80
2023-03-31T03:06:14.041Z,16.10
2023-03-31T03:09:19.141Z,15.00
2023-03-31T03:12:00.161Z,12.20
2023-03-31T03:14:33.283Z,12.50
2023-03-31T03:17:07.355Z,14.00
2023-03-31T03:19:36.251Z,14.40
2023-03-31T03:22:04.874Z,16.90
2023-03-31T03:24:35.161Z,17.90
2023-03-31T03:27:08.203Z,20.30
2023-03-31T03:29:36.559Z,18.90
2023-03-31T03:32:04.949Z,20.20
2023-03-31T03:34:34.300Z,22.10
2023-03-31T03:37:02.620Z,23.50
2023-03-31T03:39:31.115Z,23.30
2023-03-31T03:41:59.633Z,24.50
2023-03-31T03:44:27.978Z,22.50
2023-03-31T03:46:56.236Z,23.20
2023-03-31T03:49:25.345Z,22.90
2023-03-31T03:51:53.944Z,25.30
2023-03-31T03:54:25.382Z,24.30
2023-03-31T03:56:53.605Z,25.00
2023-03-31T03:59:21.720Z,25.60
2023-03-31T04:01:56.580Z,27.90
2023-03-31T04:04:25.774Z,29.90
2023-03-31T04:06:56.222Z,31.80
2023-03-31T04:09:24.448Z,33.90
2023-03-31T04:11:53.891Z,32.70
2023-03-31T04:14:22.123Z,36.00
2023-03-31T04:16:56.557Z,36.80
2023-03-31T04:19:26.612Z,35.90
2023-03-31T04:22:03.282Z,37.10
2023-03-31T04:24:34.388Z,37.00
2023-03-31T04:27:08.511Z,36.00
2023-03-31T04:29:37.455Z,35.10
2023-03-31T04:32:06.596Z,34.90
2023-03-31T04:34:35.598Z,32.80
2023-03-31T04:37:04.369Z,25.50
2023-03-31T04:39:33.137Z,23.20
2023-03-31T04:42:05.794Z,17.50
2023-03-31T04:44:40.696Z,16.60
2023-03-31T04:47:16.255Z,16.10
2023-03-31T04:49:45.433Z,15.70
2023-03-31T04:52:13.661Z,19.90
2023-03-31T04:54:43.174Z,21.20
2023-03-31T04:57:11.473Z,24.40
2023-03-31T04:59:42.838Z,28.30
2023-03-31T05:02:25.296Z,26.10
2023-03-31T05:04:54.040Z,23.70
2023-03-31T05:07:22.539Z,21.40
2023-03-31T05:09:50.990Z,22.20
2023-03-31T05:12:19.151Z,22.90
2023-03-31T05:14:47.278Z,23.70
2023-03-31T05:17:18.063Z,22.20
2023-03-31T05:19:46.657Z,21.20
2023-03-31T05:22:14.997Z,19.40
2023-03-31T05:24:43.654Z,18.30
2023-03-31T05:27:11.703Z,18.30
2023-03-31T05:29:41.029Z,25.10
2023-03-31T05:32:09.279Z,25.70
2023-03-31T05:34:37.737Z,24.80
2023-03-31T05:37:06.037Z,21.30
2023-03-31T05:39:34.233Z,19.50
2023-03-31T05:42:03.684Z,17.10
2023-03-31T05:44:31.964Z,13.70
2023-03-31T05:47:08.696Z,12.30
2023-03-31T05:49:39.341Z,11.50
2023-03-31T05:52:10.271Z,11.10
2023-03-31T05:54:38.766Z,10.70
2023-03-31T05:57:07.060Z,12.70
2023-03-31T05:59:36.364Z,13.20
2023-03-31T06:02:05.053Z,13.60
2023-03-31T06:04:33.680Z,13.20
2023-03-31T06:07:01.887Z,14.60
2023-03-31T06:12:04.660Z,17.70
2023-03-31T06:14:32.982Z,20.50
2023-03-31T06:17:01.265Z,19.50
2023-03-31T06:19:31.545Z,20.60
2023-03-31T06:21:59.819Z,19.70
2023-03-31T06:24:28.423Z,19.00
2023-03-31T06:27:01.563Z,21.40
2023-03-31T06:29:30.223Z,20.20
2023-03-31T06:31:59.220Z,22.60
2023-03-31T06:34:28.094Z,25.70
2023-03-31T06:37:00.180Z,28.30
2023-03-31T06:39:31.899Z,26.10
2023-03-31T06:42:00.734Z,26.20
2023-03-31T06:44:30.062Z,24.80
2023-03-31T06:46:58.289Z,22.50
2023-03-31T06:49:28.741Z,18.10
2023-03-31T06:51:56.907Z,14.70
2023-03-31T06:54:25.116Z,14.80
2023-03-31T06:56:53.447Z,14.70
2023-03-31T06:59:30.554Z,11.30
2023-03-31T07:01:59.073Z,11.80
2023-03-31T07:04:38.135Z,13.90
2023-03-31T07:07:18.169Z,13.30
2023-03-31T07:09:46.335Z,13.00
2023-03-31T07:12:15.564Z,11.70
2023-03-31T07:14:43.858Z,13.00
2023-03-31T07:17:12.198Z,16.20
2023-03-31T07:19:42.360Z,14.10
2023-03-31T07:22:11.359Z,12.60
2023-03-31T07:24:39.580Z,11.70
2023-03-31T07:27:08.561Z,11.30
2023-03-31T07:29:36.820Z,13.10
2023-03-31T07:32:10.590Z,15.70
2023-03-31T07:34:40.802Z,15.10
2023-03-31T07:37:12.052Z,13.60
2023-03-31T07:39:49.572Z,13.60
2023-03-31T07:42:20.818Z,13.40
2023-03-31T07:44:52.644Z,12.50
2023-03-31T07:47:24.383Z,12.60
2023-03-31T07:49:52.694Z,12.90
2023-03-31T07:52:21.303Z,12.90
2023-03-31T07:54:55.609Z,12.00
2023-03-31T07:57:26.647Z,13.00
2023-03-31T07:59:54.857Z,12.10
2023-03-31T08:02:47.938Z,11.00
2023-03-31T08:05:18.703Z,9.30
2023-03-31T08:07:56.801Z,7.80
2023-03-31T08:10:33.735Z,6.00
2023-03-31T08:13:02.954Z,5.80
2023-03-31T08:15:33.653Z,6.50
2023-03-31T08:18:04.651Z,7.90
2023-03-31T08:20:33.150Z,7.40
2023-03-31T08:23:01.875Z,8.60
2023-03-31T08:25:30.047Z,7.10
2023-03-31T08:27:58.689Z,6.60
2023-03-31T08:30:26.803Z,5.50
2023-03-31T08:32:56.873Z,5.20
2023-03-31T08:35:25.168Z,3.70
2023-03-31T08:37:53.672Z,4.10
2023-03-31T08:40:26.223Z,3.70
2023-03-31T08:43:11.500Z,3.00
2023-03-31T08:45:42.003Z,3.70
2023-03-31T08:48:42.660Z,3.10
2023-03-31T08:51:21.435Z,3.20
2023-03-31T08:54:03.794Z,3.10
2023-03-31T08:56:38.002Z,3.40
2023-03-31T09:01:56.318Z,3.60
2023-03-31T09:04:27.302Z,3.90
2023-03-31T09:07:24.214Z,3.70
2023-03-31T09:10:13.256Z,4.00
2023-03-31T09:13:10.916Z,4.30
2023-03-31T09:15:43.869Z,3.70
2023-03-31T09:18:20.060Z,3.10
2023-03-31T09:21:03.208Z,3.40
2023-03-31T09:23:40.001Z,3.40
2023-03-31T09:26:26.904Z,4.00
2023-03-31T09:28:57.799Z,3.70
2023-03-31T09:31:29.418Z,2.80
2023-03-31T09:34:01.839Z,3.20
2023-03-31T09:36:30.068Z,3.40
2023-03-31T09:38:59.381Z,2.80
2023-03-31T09:41:27.610Z,3.30
2023-03-31T09:43:56.071Z,3.20
2023-03-31T09:46:33.889Z,3.90
2023-03-31T09:49:07.097Z,3.10
2023-03-31T09:51:38.169Z,3.10
2023-03-31T09:54:26.698Z,3.10
2023-03-31T09:56:55.736Z,3.50
2023-03-31T09:59:34.397Z,3.40
2023-03-31T10:02:05.211Z,3.00
2023-03-31T10:04:33.984Z,3.90
2023-03-31T10:07:04.214Z,3.50
2023-03-31T10:09:34.561Z,2.90
2023-03-31T10:12:05.388Z,3.20
2023-03-31T10:14:40.903Z,3.20
2023-03-31T10:17:17.407Z,3.60
2023-03-31T10:20:00.173Z,3.20
2023-03-31T10:22:30.792Z,3.40
2023-03-31T10:25:22.380Z,3.40
2023-03-31T10:27:55.170Z,4.10
2023-03-31T10:30:25.091Z,3.60
2023-03-31T10:32:54.881Z,3.60
2023-03-31T10:35:23.420Z,4.40
2023-03-31T10:37:54.320Z,4.40
2023-03-31T10:40:25.343Z,3.40
2023-03-31T10:43:16.921Z,4.60
2023-03-31T10:45:56.622Z,4.40
2023-03-31T10:48:33.069Z,4.60
2023-03-31T10:51:21.960Z,3.50
2023-03-31T10:53:52.241Z,3.90
2023-03-31T10:56:34.606Z,4.30
2023-03-31T10:59:28.208Z,4.10
2023-03-31T11:02:16.428Z,4.70
2023-03-31T11:05:17.783Z,4.70
2023-03-31T11:08:13.738Z,4.70
2023-03-31T11:11:00.136Z,4.60
2023-03-31T11:13:46.110Z,4.90
2023-03-31T11:16:52.828Z,4.40
2023-03-31T11:19:23.765Z,3.70
2023-03-31T11:22:26.744Z,3.90
2023-03-31T11:25:07.301Z,4.50
2023-03-31T11:27:57.758Z,4.80
2023-03-31T11:30:38.767Z,5.00
2023-03-31T11:33:19.534Z,3.80
2023-03-31T11:36:06.789Z,4.60
2023-03-31T11:38:53.923Z,4.50
2023-03-31T11:41:37.936Z,3.60
2023-03-31T11:44:11.936Z,4.10
2023-03-31T11:47:00.255Z,4.00
2023-03-31T11:49:39.471Z,4.40
2023-03-31T11:52:15.793Z,4.30
2023-03-31T11:55:00.174Z,5.00
2023-03-31T11:57:31.491Z,5.80
2023-03-31T12:00:22.870Z,6.10
2023-03-31T12:02:58.170Z,7.50
2023-03-31T12:05:30.218Z,7.10
2023-03-31T12:08:01.122Z,7.00
2023-03-31T12:10:39.197Z,5.30
2023-03-31T12:13:37.875Z,5.30
2023-03-31T12:16:21.773Z,6.00
2023-03-31T12:23:56.609Z,4.30
2023-03-31T12:26:45.157Z,4.40
2023-03-31T12:29:22.461Z,4.40
2023-03-31T12:31:49.776Z,3.10
2023-03-31T12:34:23.650Z,3.50
2023-03-31T12:37:02.693Z,2.90
2023-03-31T12:39:51.351Z,4.60
2023-03-31T12:42:51.219Z,3.90
2023-03-31T12:45:28.775Z,9.60
2023-03-31T12:48:26.720Z,5.70
2023-03-31T12:50:53.593Z,6.80
2023-03-31T12:53:30.857Z,5.80
2023-03-31T12:55:58.006Z,3.80
2023-03-31T12:58:30.791Z,9.40
2023-03-31T13:01:14.241Z,11.60
2023-03-31T13:03:46.678Z,6.50
2023-03-31T13:06:29.023Z,7.10
2023-03-31T13:08:56.620Z,8.80
2023-03-31T13:11:33.435Z,4.00
2023-03-31T13:14:22.606Z,3.00
2023-03-31T13:17:10.683Z,8.20
2023-03-31T13:22:06.328Z,9.60
2023-03-31T13:24:36.513Z,5.10
2023-03-31T13:27:48.962Z,7.00
2023-03-31T13:30:42.466Z,4.40
2023-03-31T13:33:29.241Z,3.00
2023-03-31T13:36:23.218Z,3.00
2023-03-31T13:39:11.104Z,2.80
2023-03-31T13:41:55.792Z,3.40
2023-03-31T13:44:44.563Z,4.90
2023-03-31T13:47:53.163Z,4.40
2023-03-31T13:50:46.128Z,3.40
2023-03-31T13:53:20.318Z,3.10
2023-03-31T13:56:12.031Z,3.40
2023-03-31T13:59:16.185Z,2.70
2023-03-31T14:02:25.130Z,3.60
2023-03-31T14:05:28.094Z,3.90
2023-03-31T14:08:40.417Z,4.30
2023-03-31T14:11:22.799Z,4.30
2023-03-31T14:14:02.996Z,4.10
2023-03-31T14:16:33.413Z,4.40
2023-03-31T14:19:23.765Z,4.10
2023-03-31T14:22:14.307Z,4.40
2023-03-31T14:25:06.965Z,4.40
2023-03-31T14:27:55.630Z,4.40
2023-03-31T14:30:44.498Z,10.50
2023-03-31T14:33:34.720Z,4.50
2023-03-31T14:36:08.872Z,3.60
2023-03-31T14:38:37.758Z,4.10
2023-03-31T14:41:04.716Z,4.10
2023-03-31T14:43:36.385Z,4.60
2023-03-31T14:46:08.642Z,3.60
2023-03-31T14:48:44.988Z,3.50
2023-03-31T14:51:28.133Z,4.10
2023-03-31T14:53:59.064Z,4.30
2023-03-31T14:56:35.958Z,2.90
2023-03-31T14:59:03.580Z,3.50
2023-03-31T15:01:34.020Z,4.20
2023-03-31T15:04:15.567Z,4.20
2023-03-31T15:06:47.697Z,3.80
2023-03-31T15:09:35.737Z,3.80
2023-03-31T15:12:14.636Z,4.10
2023-03-31T15:14:50.456Z,3.50
2023-03-31T15:17:27.695Z,5.60
2023-03-31T15:19:59.974Z,11.90
2023-03-31T15:22:28.338Z,5.10
2023-03-31T15:24:57.774Z,4.90
2023-03-31T15:27:37.705Z,4.10
2023-03-31T15:30:06.686Z,6.30
2023-03-31T15:32:36.960Z,6.60
2023-03-31T15:37:57.569Z,6.50
2023-03-31T15:40:39.220Z,6.30
2023-03-31T15:43:24.998Z,17.40
2023-03-31T15:46:00.084Z,10.70
2023-03-31T15:48:37.988Z,8.70
2023-03-31T15:51:14.036Z,11.80
2023-03-31T15:53:47.104Z,12.60
2023-03-31T15:56:44.117Z,8.80
2023-03-31T15:59:27.716Z,7.30
2023-03-31T16:02:03.378Z,6.90
2023-03-31T16:04:32.120Z,8.60
2023-03-31T16:07:07.751Z,7.80
2023-03-31T16:09:48.794Z,8.20
2023-03-31T16:12:27.095Z,9.70
2023-03-31T16:14:57.799Z,11.80
2023-03-31T16:17:29.219Z,11.90
2023-03-31T16:20:10.475Z,12.00
2023-03-31T16:22:40.824Z,10.80
2023-03-31T16:25:09.945Z,10.20
2023-03-31T16:27:46.941Z,13.90
2023-03-31T16:30:20.591Z,12.90
2023-03-31T16:33:08.964Z,12.80
2023-03-31T16:35:37.778Z,13.00
2023-03-31T16:38:05.616Z,10.00
2023-03-31T16:40:44.654Z,9.20
2023-03-31T16:43:19.109Z,6.70
2023-03-31T16:45:51.772Z,5.10
2023-03-31T16:48:21.213Z,8.10
2023-03-31T16:50:52.418Z,5.60
2023-03-31T16:53:24.356Z,7.70
2023-03-31T16:55:51.305Z,5.20
2023-03-31T16:58:18.344Z,5.80
2023-03-31T17:00:45.359Z,6.60
2023-03-31T17:03:15.124Z,6.70
2023-03-31T17:05:47.296Z,8.30
2023-03-31T17:08:14.529Z,6.30
